Virtual LH

Virtual LH. There's no better way to fly
Since 2013.



AIRPORT MAP

METAR AND TAF INFORMATION

METAR FOR LEMG
ADDS - METARS form results

(1113 UTC 20 June 2019)
Data provider http://aviationweather.gov/metar/data/
 
METAR text: LEMG 201100Z 31007KT 260V350 9999 FEW030 31/12 Q1013 NOSIG
Conditions at: LEMG (MALAGA (CIV/MIL), ES) observed 1100 UTC 20 June 2019
Temperature: 31.0°C (88°F)
Dewpoint: 12.0°C (54°F) [RH = 31%]
Pressure (altimeter): 29.91 inches Hg (1013.0 mb)
Winds: from the NW (310 degrees) at 8 MPH (7 knots; 3.6 m/s)
Visibility: 6 or more miles (10+ km)
Ceiling: at least 12,000 feet AGL
Clouds: few clouds at 3000 feet AGL
Weather: no significant weather observed at this time

METAR text: LEMG 201030Z 28011KT 250V310 9999 FEW025 29/13 Q1013 NOSIG
Conditions at: LEMG (MALAGA (CIV/MIL), ES) observed 1030 UTC 20 June 2019
Temperature: 29.0°C (84°F)
Dewpoint: 13.0°C (55°F) [RH = 37%]
Pressure (altimeter): 29.91 inches Hg (1013.0 mb)
Winds: from the W (280 degrees) at 13 MPH (11 knots; 5.7 m/s)
Visibility: 6 or more miles (10+ km)
Ceiling: at least 12,000 feet AGL
Clouds: few clouds at 2500 feet AGL
Weather: no significant weather observed at this time

Forecast for: LEMG (MALAGA (CIV/MIL), ES)
Text: TAF LEMG 200500Z 2006/2106 30010KT CAVOK TX35/2015Z TN20/2105Z
Forecast period: 0600 UTC 20 June 2019 to 0600 UTC 21 June 2019
Forecast type: FROM: standard forecast or significant change
Winds: from the WNW (300 degrees) at 12 MPH (10 knots; 5.1 m/s)
Visibility: 6 or more miles 10+ km)
Ceiling: unknown
Clouds: missing
Weather: no significant weather forecast for this period

RUNWAY INFORMATION

Runway 12 Runway length 9022 ft Runway width 148 ft
Runway elevation 52 ft Runway displaced threshold 0 ft Runway heading 119
Runway 30 Runway length 9022 ft Runway width 148 ft
Runway elevation 31 ft Runway displaced threshold 0 ft Runway heading 299
Runway 13 Runway length 10500 ft Runway width 148 ft
Runway elevation 52 ft Runway displaced threshold 0 ft Runway heading 133
Runway 31 Runway length 10500 ft Runway width 148 ft
Runway elevation 31 ft Runway displaced threshold 0 ft Runway heading 313

AIRPORT FREQUENCIES

Type A/D Name APP Frequency 123.85 MHZ
Type ATIS Name ATIS Frequency 120.375 MHZ
Type CLD Name CLR DEL Frequency 121.875 MHZ
Type GND Name GND-W Frequency 121.7 MHZ
Type GND Name GND-E Frequency 121.95 MHZ
Type TWR Name TWR-W (RWY Frequency 118.15 MHZ
Type TWR Name TWR-E (RWY Frequency 118.775 MHZ

AIRPORT NEAR NAVIGATION AIDS

Type VOR-DME Name Martin Frequency 112600 KHZ
Type VOR-DME Name Malaga Frequency 112000 KHZ
Type VOR-DME Name Malaga Frequency 113550 KHZ
Type NDB Name Malaga Frequency 330 KHZ